Time;durP1;ratioP1;P1;durP2;ratioP2;P2;SDS_P1;SDS_P2;PMS_P1;PMS_P2;Temp;Humidity;BMP_temperature;BMP_pressure;BME280_temperature;BME280_humidity;BME280_pressure;Samples;Min_cycle;Max_cycle;Signal;HPM_P1;HPM_P2
2023/03/06 00:00:49;;;;;;;14.55;8.88;;;;;;;2.28;65.72;95901.81;5000927;28;20054;-79
2023/03/06 00:03:17;;;;;;;16.75;8.93;;;;;;;2.28;65.68;95901.00;5000975;28;20113;-80
2023/03/06 00:05:44;;;;;;;18.20;9.48;;;;;;;2.24;65.40;95900.50;5000768;28;20058;-78
2023/03/06 00:08:12;;;;;;;18.63;11.00;;;;;;;2.21;65.88;95899.03;5000399;28;20054;-78
2023/03/06 00:10:40;;;;;;;25.30;13.98;;;;;;;2.20;65.78;95894.81;5001446;28;20060;-77
2023/03/06 00:13:11;;;;;;;30.20;15.35;;;;;;;2.19;65.62;95889.84;5001493;28;20058;-78
2023/03/06 00:15:40;;;;;;;38.85;17.70;;;;;;;2.18;65.53;95890.78;4995819;28;20050;-77
2023/03/06 00:18:09;;;;;;;26.35;14.60;;;;;;;2.16;65.31;95882.41;4994445;28;20427;-78
2023/03/06 00:20:38;;;;;;;28.75;14.43;;;;;;;2.16;65.64;95883.19;4995517;28;20046;-77
2023/03/06 00:23:06;;;;;;;30.02;15.52;;;;;;;2.16;65.82;95879.81;4995782;28;20089;-77
2023/03/06 00:25:35;;;;;;;27.77;15.07;;;;;;;2.17;65.88;95873.72;4995308;28;20054;-77
2023/03/06 00:28:03;;;;;;;27.60;15.23;;;;;;;2.20;65.84;95868.28;4994924;28;20118;-78
2023/03/06 00:30:31;;;;;;;23.00;14.18;;;;;;;2.23;66.00;95857.69;4995915;28;20057;-77
2023/03/06 00:33:00;;;;;;;22.05;10.88;;;;;;;2.24;65.76;95854.16;4995805;28;20058;-77
2023/03/06 00:35:27;;;;;;;22.23;11.30;;;;;;;2.24;65.43;95849.81;4995355;28;20057;-77
2023/03/06 00:37:56;;;;;;;20.60;11.95;;;;;;;2.26;65.81;95847.09;4995410;28;20104;-78
2023/03/06 00:40:24;;;;;;;19.15;10.70;;;;;;;2.27;65.66;95848.72;4995575;28;20142;-78
2023/03/06 00:42:51;;;;;;;19.75;10.75;;;;;;;2.27;65.53;95843.56;4995501;28;20054;-77
2023/03/06 00:45:19;;;;;;;18.70;9.70;;;;;;;2.27;65.43;95848.72;4995146;28;20046;-77
2023/03/06 00:47:46;;;;;;;20.52;11.23;;;;;;;2.25;66.04;95855.78;4995381;28;20042;-77
2023/03/06 00:50:15;;;;;;;19.33;11.65;;;;;;;2.24;66.14;95847.25;4995561;28;20137;-77
2023/03/06 00:52:43;;;;;;;21.20;10.90;;;;;;;2.23;66.24;95839.66;4996397;28;20047;-79
2023/03/06 00:55:11;;;;;;;21.50;11.52;;;;;;;2.23;66.60;95848.22;4995817;28;20054;-77
2023/03/06 00:57:38;;;;;;;14.55;9.82;;;;;;;2.24;66.11;95838.72;4996144;28;20078;-76
2023/03/06 01:00:09;;;;;;;18.73;9.80;;;;;;;2.24;66.43;95834.38;4992792;28;20054;-77
2023/03/06 01:02:37;;;;;;;19.88;11.18;;;;;;;2.25;65.90;95830.03;4993023;28;20049;-79
2023/03/06 01:05:05;;;;;;;21.60;11.13;;;;;;;2.24;65.77;95818.94;5013719;22;20038;-78
2023/03/06 01:07:35;;;;;;;19.27;9.90;;;;;;;2.24;66.17;95807.84;4993955;28;20138;-78
2023/03/06 01:10:03;;;;;;;18.02;10.27;;;;;;;2.24;66.12;95813.00;4993193;28;20056;-78
2023/03/06 01:12:31;;;;;;;25.17;11.43;;;;;;;2.22;66.02;95812.34;4993383;28;20057;-78
2023/03/06 01:14:58;;;;;;;17.35;10.43;;;;;;;2.23;66.18;95812.19;4993375;28;20050;-78
2023/03/06 01:17:26;;;;;;;21.55;10.80;;;;;;;2.26;65.53;95801.59;4995839;28;20058;-78
2023/03/06 01:19:54;;;;;;;24.80;10.13;;;;;;;2.32;65.63;95807.09;4995942;28;20050;-78
2023/03/06 01:22:21;;;;;;;19.48;10.25;;;;;;;2.35;65.32;95794.75;4997116;28;20050;-78
2023/03/06 01:24:50;;;;;;;17.88;10.75;;;;;;;2.36;64.64;95796.38;4996456;28;20052;-77
2023/03/06 01:27:17;;;;;;;19.38;10.40;;;;;;;2.31;64.79;95788.28;4996316;28;20061;-78
2023/03/06 01:29:45;;;;;;;17.35;8.85;;;;;;;2.25;64.74;95788.88;4995590;28;20052;-78
2023/03/06 01:32:12;;;;;;;23.30;10.82;;;;;;;2.22;64.99;95789.19;4996970;28;20050;-78
2023/03/06 01:34:40;;;;;;;19.55;11.07;;;;;;;2.21;65.42;95782.44;4997042;28;20432;-78
2023/03/06 01:37:08;;;;;;;20.20;11.52;;;;;;;2.22;65.01;95784.03;4997229;28;20443;-78
2023/03/06 01:39:35;;;;;;;15.98;9.68;;;;;;;2.23;65.58;95777.91;4995534;28;20050;-78
2023/03/06 01:42:04;;;;;;;21.13;11.35;;;;;;;2.26;65.06;95782.78;4996701;28;20492;-78
2023/03/06 01:44:32;;;;;;;19.20;10.20;;;;;;;2.25;64.95;95778.56;4997250;28;20129;-78
2023/03/06 01:47:01;;;;;;;20.50;10.70;;;;;;;2.24;64.98;95782.13;4997224;28;20050;-78
2023/03/06 01:49:32;;;;;;;19.95;11.95;;;;;;;2.26;65.24;95772.47;4996762;28;20493;-78
2023/03/06 01:52:02;;;;;;;20.30;10.77;;;;;;;2.27;66.09;95766.38;5012141;28;20114;-78
2023/03/06 01:54:33;;;;;;;18.40;10.20;;;;;;;2.29;65.86;95761.88;5016386;28;20066;-78
2023/03/06 01:57:06;;;;;;;17.52;10.25;;;;;;;2.33;66.43;95765.78;4998683;28;20129;-78
2023/03/06 01:59:37;;;;;;;23.15;11.13;;;;;;;2.35;66.94;95761.28;4996182;28;20136;-78
2023/03/06 02:02:06;;;;;;;19.60;10.85;;;;;;;2.39;66.74;95757.44;4996865;28;20050;-78
2023/03/06 02:04:36;;;;;;;20.35;11.00;;;;;;;2.42;65.61;95754.56;4996361;28;20543;-78
2023/03/06 02:07:05;;;;;;;19.10;10.82;;;;;;;2.45;65.73;95756.84;4996690;28;20057;-78
2023/03/06 02:09:34;;;;;;;20.10;10.93;;;;;;;2.48;66.24;95748.81;4995581;28;20485;-78
2023/03/06 02:12:07;;;;;;;17.05;10.73;;;;;;;2.54;66.13;95746.59;4995856;28;20050;-77
2023/03/06 02:14:35;;;;;;;;;;;;;;;2.59;65.05;95741.78;4996463;28;20492;-78
2023/03/06 02:17:03;;;;;;;22.55;13.27;;;;;;;2.53;65.19;95745.78;4996784;28;20029;-79
2023/03/06 02:19:43;;;;;;;21.75;11.52;;;;;;;2.51;64.50;95741.75;4995252;28;20046;-79
2023/03/06 02:22:11;;;;;;;19.88;11.15;;;;;;;2.48;64.98;95738.50;4996135;28;20504;-79
2023/03/06 02:24:45;;;;;;;20.88;10.88;;;;;;;2.47;64.58;95731.75;4996007;28;20612;-78
2023/03/06 02:27:16;;;;;;;22.65;12.70;;;;;;;2.48;64.63;95728.22;4995920;28;20476;-79
2023/03/06 02:29:44;;;;;;;23.88;12.23;;;;;;;2.48;64.57;95732.56;4992326;28;20109;-79
2023/03/06 02:32:12;;;;;;;22.58;11.13;;;;;;;2.47;64.64;95726.63;4993870;28;20050;-78
2023/03/06 02:34:55;;;;;;;24.85;11.90;;;;;;;2.48;65.89;95728.22;4995200;28;20465;-79
2023/03/06 02:37:25;;;;;;;21.92;11.52;;;;;;;2.48;66.11;95723.06;4994278;28;20133;-78
2023/03/06 02:40:03;;;;;;;23.02;12.07;;;;;;;2.47;65.16;95716.31;4993881;28;20129;-78
2023/03/06 02:42:34;;;;;;;22.13;11.40;;;;;;;2.46;64.75;95709.53;4995457;28;20062;-78
2023/03/06 02:45:05;;;;;;;24.77;13.05;;;;;;;2.45;65.94;95707.94;4993736;28;20054;-78
2023/03/06 02:47:33;;;;;;;20.95;12.75;;;;;;;2.44;65.48;95697.78;4994559;28;20052;-78
2023/03/06 02:50:00;;;;;;;17.55;10.15;;;;;;;2.46;65.24;95703.59;4993630;28;20072;-78
2023/03/06 02:52:28;;;;;;;19.42;11.15;;;;;;;2.47;64.92;95694.91;4995164;28;20153;-79
2023/03/06 02:54:55;;;;;;;21.52;12.13;;;;;;;2.45;64.44;95687.34;4994958;28;20133;-78
2023/03/06 02:57:23;;;;;;;20.67;12.18;;;;;;;2.45;64.61;95695.06;4995932;28;20054;-79
2023/03/06 02:59:52;;;;;;;21.45;11.90;;;;;;;2.46;64.31;95698.44;4994666;28;20046;-78
2023/03/06 03:02:19;;;;;;;21.63;12.40;;;;;;;2.47;64.21;95695.72;4995239;28;20062;-78
2023/03/06 03:04:47;;;;;;;19.60;11.90;;;;;;;2.47;64.62;95682.84;4994970;28;20050;-79
2023/03/06 03:07:14;;;;;;;21.20;11.82;;;;;;;2.50;64.74;95684.31;4995341;28;20054;-79
2023/03/06 03:09:42;;;;;;;23.70;12.55;;;;;;;2.54;64.21;95685.63;4993964;28;20053;-78
2023/03/06 03:12:10;;;;;;;20.02;11.48;;;;;;;2.54;64.72;95687.41;4995131;28;20054;-78
2023/03/06 03:14:38;;;;;;;27.98;13.00;;;;;;;2.53;65.35;95681.41;4994782;28;20054;-79
2023/03/06 03:17:07;;;;;;;20.55;11.63;;;;;;;2.56;65.27;95688.03;4995031;28;20057;-78
2023/03/06 03:19:34;;;;;;;21.08;12.30;;;;;;;2.59;64.85;95675.66;4994063;28;20050;-78
2023/03/06 03:22:02;;;;;;;22.92;12.13;;;;;;;2.63;65.12;95676.97;4994652;28;20054;-78
2023/03/06 03:24:29;;;;;;;20.52;11.05;;;;;;;2.67;64.93;95674.91;4994931;28;20046;-78
2023/03/06 03:26:57;;;;;;;22.17;12.10;;;;;;;2.71;65.03;95673.59;4995018;28;20050;-78
2023/03/06 03:29:25;;;;;;;21.65;11.20;;;;;;;2.77;64.95;95669.59;4994216;28;20464;-79
2023/03/06 03:31:52;;;;;;;18.25;10.82;;;;;;;2.77;64.85;95672.19;4994705;28;20056;-79
2023/03/06 03:34:21;;;;;;;21.70;11.90;;;;;;;2.73;65.64;95671.69;4994923;28;20537;-78
2023/03/06 03:36:49;;;;;;;16.70;10.75;;;;;;;2.76;65.35;95662.84;4994347;28;20065;-79
2023/03/06 03:39:17;;;;;;;21.63;11.38;;;;;;;2.79;65.49;95676.22;4993338;28;20054;-79
2023/03/06 03:41:44;;;;;;;25.75;14.85;;;;;;;2.81;65.24;95661.41;4994705;28;20109;-78
2023/03/06 03:44:12;;;;;;;24.90;14.48;;;;;;;2.81;64.75;95666.56;4994525;28;20050;-79
2023/03/06 03:46:39;;;;;;;22.15;13.30;;;;;;;2.79;64.07;95662.53;4994208;28;20054;-79
2023/03/06 03:49:07;;;;;;;20.90;11.63;;;;;;;2.73;63.96;95661.38;4993704;28;20065;-78
2023/03/06 03:51:36;;;;;;;22.10;12.20;;;;;;;2.68;64.81;95661.84;4994314;28;20457;-78
2023/03/06 03:54:05;;;;;;;21.67;12.77;;;;;;;2.65;66.00;95663.94;4994100;28;20497;-79
2023/03/06 03:56:33;;;;;;;20.83;11.77;;;;;;;2.65;66.53;95662.16;4994453;28;20584;-79
2023/03/06 03:59:00;;;;;;;18.63;11.85;;;;;;;2.68;66.44;95658.47;4993551;28;20056;-79
2023/03/06 04:01:28;;;;;;;20.38;12.30;;;;;;;2.70;66.58;95659.13;4993986;28;20046;-79
2023/03/06 04:03:55;;;;;;;20.85;12.18;;;;;;;2.70;65.80;95653.97;4993982;28;20081;-79
2023/03/06 04:06:23;;;;;;;21.60;13.02;;;;;;;2.72;66.14;95651.25;4994048;28;20479;-79
2023/03/06 04:08:52;;;;;;;25.52;13.48;;;;;;;2.70;66.71;95641.09;4993821;28;20469;-79
2023/03/06 04:11:20;;;;;;;21.67;12.13;;;;;;;2.70;66.29;95643.66;4993991;28;20050;-78
2023/03/06 04:13:47;;;;;;;25.20;13.75;;;;;;;2.70;67.07;95637.72;4993912;28;20061;-78
2023/03/06 04:16:15;;;;;;;21.75;12.35;;;;;;;2.68;66.60;95641.25;4994041;28;20052;-79
2023/03/06 04:18:42;;;;;;;22.73;12.07;;;;;;;2.68;66.52;95632.72;4993895;28;20125;-79
2023/03/06 04:21:10;;;;;;;19.75;11.63;;;;;;;2.68;65.90;95643.81;4994254;28;20428;-79
2023/03/06 04:23:37;;;;;;;20.52;12.77;;;;;;;2.68;66.26;95638.66;4994590;28;20489;-78
2023/03/06 04:26:06;;;;;;;20.88;12.45;;;;;;;2.70;66.97;95638.53;4994355;28;20053;-79
2023/03/06 04:28:34;;;;;;;21.65;13.45;;;;;;;2.69;67.05;95639.50;4993863;28;20115;-78
2023/03/06 04:31:02;;;;;;;21.20;11.80;;;;;;;2.72;66.55;95628.88;4994110;28;20061;-78
2023/03/06 04:33:29;;;;;;;20.05;11.80;;;;;;;2.74;67.08;95621.78;4994957;28;20085;-79
2023/03/06 04:35:57;;;;;;;22.95;12.13;;;;;;;2.72;67.13;95621.16;5006235;28;20046;-78
2023/03/06 04:38:24;;;;;;;23.90;11.43;;;;;;;2.73;67.33;95627.91;5012121;28;20106;-78
2023/03/06 04:40:52;;;;;;;22.80;11.77;;;;;;;2.78;67.25;95625.69;4998548;28;20050;-78
2023/03/06 04:43:21;;;;;;;19.15;10.32;;;;;;;2.83;67.04;95630.34;4994122;28;20437;-79
2023/03/06 04:45:49;;;;;;;21.27;11.95;;;;;;;2.85;67.44;95616.34;4994470;28;20197;-79
2023/03/06 04:48:18;;;;;;;23.33;12.77;;;;;;;2.84;66.56;95616.50;4993126;28;20177;-78
2023/03/06 04:50:46;;;;;;;23.05;13.15;;;;;;;2.82;66.57;95626.97;4994249;28;20133;-79
2023/03/06 04:53:15;;;;;;;21.73;12.55;;;;;;;2.84;66.82;95619.06;4997035;28;20562;-79
2023/03/06 04:55:43;;;;;;;21.20;12.43;;;;;;;2.80;66.53;95615.19;4997282;28;20427;-78
2023/03/06 04:58:11;;;;;;;18.17;10.80;;;;;;;2.80;67.05;95607.47;4996799;28;20132;-78
2023/03/06 05:00:40;;;;;;;21.58;11.95;;;;;;;2.82;66.63;95611.53;4997458;28;20428;-78
2023/03/06 05:03:08;;;;;;;22.67;12.48;;;;;;;2.84;66.57;95614.75;4997614;28;20046;-79
2023/03/06 05:05:36;;;;;;;29.13;12.15;;;;;;;2.85;66.03;95613.78;4997014;28;20086;-79
2023/03/06 05:08:04;;;;;;;22.77;11.88;;;;;;;2.84;66.52;95612.19;4996448;28;20534;-79
2023/03/06 05:10:31;;;;;;;20.20;10.95;;;;;;;2.83;66.76;95613.13;4997435;28;20050;-78
2023/03/06 05:12:59;;;;;;;18.98;10.48;;;;;;;2.87;66.26;95606.69;4997361;28;20050;-78
2023/03/06 05:15:27;;;;;;;21.05;11.27;;;;;;;2.95;65.62;95615.38;4997480;28;20141;-78
2023/03/06 05:17:56;;;;;;;20.08;11.73;;;;;;;3.01;65.33;95617.34;4996537;28;20052;-79
2023/03/06 05:20:24;;;;;;;19.67;12.10;;;;;;;3.02;65.19;95619.78;4997421;28;20052;-79
2023/03/06 05:22:51;;;;;;;18.00;11.40;;;;;;;3.06;65.01;95622.81;4996909;28;20129;-78
2023/03/06 05:25:19;;;;;;;21.88;12.05;;;;;;;3.07;65.11;95620.09;4997018;28;20060;-78
2023/03/06 05:27:46;;;;;;;19.15;11.15;;;;;;;3.07;64.97;95625.25;4996600;28;20062;-78
2023/03/06 05:30:15;;;;;;;21.15;12.50;;;;;;;3.08;64.62;95628.63;4997044;28;20050;-78
2023/03/06 05:32:43;;;;;;;20.95;13.18;;;;;;;3.10;64.42;95618.97;4997036;28;20050;-79
2023/03/06 05:35:17;;;;;;;24.75;12.20;;;;;;;3.12;64.26;95618.81;4996902;28;20771;-79
2023/03/06 05:37:45;;;;;;;24.90;12.70;;;;;;;3.10;64.47;95611.22;4996308;28;20085;-78
2023/03/06 05:40:14;;;;;;;21.23;12.25;;;;;;;3.07;64.63;95608.97;4996531;28;20053;-78
2023/03/06 05:42:41;;;;;;;34.35;13.82;;;;;;;3.04;65.22;95609.28;4996380;28;20061;-78
2023/03/06 05:45:10;;;;;;;19.83;11.40;;;;;;;3.04;65.13;95609.28;4996520;28;20073;-78
2023/03/06 05:47:38;;;;;;;24.95;13.57;;;;;;;3.03;64.59;95612.84;4996811;28;20137;-78
2023/03/06 05:50:07;;;;;;;23.25;13.73;;;;;;;2.99;64.50;95606.38;4995823;28;20433;-78
2023/03/06 05:52:36;;;;;;;24.20;14.07;;;;;;;2.95;64.85;95605.91;4996654;28;20116;-79
2023/03/06 05:55:04;;;;;;;24.13;12.82;;;;;;;2.95;65.02;95602.50;4996341;28;20192;-79
2023/03/06 05:57:31;;;;;;;26.05;11.93;;;;;;;2.92;64.83;95601.06;4996346;28;20096;-79
2023/03/06 05:59:59;;;;;;;24.35;13.45;;;;;;;2.92;65.52;95603.63;4995911;28;20050;-79
2023/03/06 06:02:26;;;;;;;26.27;13.25;;;;;;;2.95;65.51;95607.66;4995839;28;20149;-79
2023/03/06 06:04:54;;;;;;;21.98;12.93;;;;;;;2.95;65.11;95607.66;4996847;28;20054;-78
2023/03/06 06:07:21;;;;;;;23.40;13.30;;;;;;;2.95;65.00;95607.66;4996021;28;20050;-79
2023/03/06 06:09:53;;;;;;;23.55;13.60;;;;;;;2.97;65.30;95613.47;4998690;28;20137;-82
2023/03/06 06:12:20;;;;;;;28.67;17.00;;;;;;;2.99;64.98;95611.53;5006595;28;20035;-81
2023/03/06 06:14:48;;;;;;;27.77;15.20;;;;;;;3.00;64.48;95613.16;4998976;28;20054;-80
2023/03/06 06:17:16;;;;;;;25.23;13.52;;;;;;;2.97;64.22;95603.97;4993834;28;20043;-80
2023/03/06 06:19:43;;;;;;;22.27;13.40;;;;;;;2.93;64.32;95607.00;5005352;28;20026;-79
2023/03/06 06:22:11;;;;;;;28.55;15.60;;;;;;;2.91;65.06;95598.63;5017989;28;20079;-78
2023/03/06 06:24:39;;;;;;;24.15;14.40;;;;;;;2.92;65.58;95610.56;5006915;28;20062;-79
2023/03/06 06:27:08;;;;;;;26.88;14.18;;;;;;;2.93;65.10;95607.84;5001916;28;20053;-78
2023/03/06 06:29:36;;;;;;;26.55;13.32;;;;;;;2.95;64.55;95605.09;5002029;28;20070;-79
2023/03/06 06:32:04;;;;;;;22.90;12.77;;;;;;;2.95;64.60;95607.66;4991781;28;20489;-79
2023/03/06 06:34:31;;;;;;;24.02;12.80;;;;;;;2.96;64.22;95606.72;4992024;28;20097;-78
2023/03/06 06:36:59;;;;;;;22.58;12.98;;;;;;;2.98;64.61;95610.75;4986229;28;20046;-79
2023/03/06 06:39:27;;;;;;;22.83;14.43;;;;;;;2.95;64.94;95611.06;4993403;28;20060;-79
2023/03/06 06:41:55;;;;;;;23.15;13.35;;;;;;;2.92;65.29;95608.78;4995946;28;20074;-80
2023/03/06 06:44:44;;;;;;;21.45;12.38;;;;;;;2.96;65.62;95609.28;4993116;28;20160;-78
2023/03/06 06:47:12;;;;;;;26.83;12.90;;;;;;;2.97;64.81;95603.97;4995937;28;20495;-79
2023/03/06 06:49:55;;;;;;;22.20;11.93;;;;;;;2.98;65.24;95609.94;4991580;28;20538;-78
2023/03/06 06:52:24;;;;;;;27.10;14.00;;;;;;;2.97;65.12;95610.88;4995069;28;20046;-79
2023/03/06 06:54:52;;;;;;;20.20;11.77;;;;;;;2.99;64.36;95614.91;4991317;28;20089;-79
2023/03/06 06:57:20;;;;;;;19.08;11.07;;;;;;;3.04;64.70;95615.25;4979190;28;20141;-79
2023/03/06 06:59:49;;;;;;;23.63;13.60;;;;;;;3.06;64.32;95610.75;4987144;28;20133;-78
2023/03/06 07:02:20;;;;;;;17.43;10.63;;;;;;;3.07;64.20;95609.78;4994942;28;20113;-80
2023/03/06 07:07:14;;;;;;;17.80;11.20;;;;;;;3.13;64.02;95618.66;4986194;28;20523;-81
2023/03/06 07:09:42;;;;;;;18.05;11.15;;;;;;;3.16;63.76;95618.31;4985862;28;20082;-81
2023/03/06 07:12:10;;;;;;;17.80;10.80;;;;;;;3.18;63.30;95618.19;4988487;28;20046;-80
2023/03/06 07:14:40;;;;;;;18.42;10.10;;;;;;;3.20;63.52;95626.56;4980543;28;20394;-80
2023/03/06 07:17:09;;;;;;;21.55;10.82;;;;;;;3.21;63.16;95628.94;4995356;28;20066;-82
2023/03/06 07:19:37;;;;;;;18.90;11.05;;;;;;;3.24;62.95;95625.28;4991407;28;20070;-82
2023/03/06 07:22:06;;;;;;;18.08;10.07;;;;;;;3.26;62.35;95628.50;4982554;28;20063;-81
2023/03/06 07:24:34;;;;;;;18.48;9.75;;;;;;;3.25;62.22;95622.50;4989261;28;20141;-80
2023/03/06 07:27:01;;;;;;;18.42;10.65;;;;;;;3.25;62.71;95627.66;4987409;28;20058;-82
2023/03/06 07:29:31;;;;;;;18.08;11.23;;;;;;;3.25;61.91;95627.66;4990820;28;20051;-80
2023/03/06 07:31:59;;;;;;;18.67;9.95;;;;;;;3.25;62.30;95632.81;4977579;28;20051;-80
2023/03/06 07:34:28;;;;;;;16.48;9.63;;;;;;;3.28;62.25;95632.53;4985662;28;20125;-81
2023/03/06 07:36:56;;;;;;;19.35;9.20;;;;;;;3.29;61.98;95639.28;4989143;28;20126;-82
2023/03/06 07:39:23;;;;;;;16.92;10.27;;;;;;;3.32;62.16;95634.78;4983159;28;20061;-81
2023/03/06 07:41:52;;;;;;;15.75;9.60;;;;;;;3.32;62.13;95633.00;4988077;28;20050;-82
2023/03/06 07:44:19;;;;;;;20.20;9.63;;;;;;;3.30;61.69;95635.75;4995354;28;20573;-81
2023/03/06 07:46:47;;;;;;;15.60;10.07;;;;;;;3.29;61.56;95633.31;4990550;28;20501;-81
2023/03/06 07:49:16;;;;;;;16.15;9.93;;;;;;;3.31;61.91;95636.53;4979696;28;20141;-82
2023/03/06 07:51:45;;;;;;;16.17;10.65;;;;;;;3.34;62.03;95643.16;4982016;28;20094;-81
2023/03/06 07:54:13;;;;;;;19.50;11.43;;;;;;;3.36;61.92;95642.00;4994361;28;20053;-81
2023/03/06 07:56:41;;;;;;;20.38;9.30;;;;;;;3.41;61.73;95641.53;4994527;28;20567;-80
2023/03/06 07:59:10;;;;;;;16.45;9.48;;;;;;;3.45;61.37;95643.63;4994625;28;20137;-80
2023/03/06 08:01:39;;;;;;;15.98;9.80;;;;;;;3.48;61.11;95645.09;4986409;28;20511;-81
2023/03/06 08:04:06;;;;;;;18.13;10.15;;;;;;;3.50;61.97;95650.91;4982558;28;20050;-82
2023/03/06 08:06:34;;;;;;;18.52;10.82;;;;;;;3.53;61.24;95644.63;4983776;28;20057;-80
2023/03/06 08:09:04;;;;;;;18.40;10.73;;;;;;;3.55;61.05;95653.78;4990451;28;20084;-83
2023/03/06 08:11:32;;;;;;;18.02;10.63;;;;;;;3.58;60.62;95648.31;4995111;28;20109;-81
2023/03/06 08:14:00;;;;;;;17.15;9.60;;;;;;;3.60;60.73;95641.22;5009979;28;20057;-83
2023/03/06 08:16:30;;;;;;;18.02;10.43;;;;;;;3.65;60.66;95654.44;5002976;28;20062;-81
2023/03/06 08:18:58;;;;;;;20.45;10.65;;;;;;;3.67;61.30;95647.34;5014923;28;20039;-82
2023/03/06 08:21:28;;;;;;;16.08;10.77;;;;;;;3.68;60.73;95659.28;5006425;28;20051;-82
2023/03/06 08:23:56;;;;;;;18.45;10.40;;;;;;;3.70;60.97;95657.34;5006687;28;20119;-85
2023/03/06 08:26:28;;;;;;;17.55;9.82;;;;;;;3.71;60.75;95653.78;5004981;28;20089;-82
2023/03/06 08:28:58;;;;;;;15.25;9.23;;;;;;;3.75;60.69;95656.06;5008138;28;20108;-83
2023/03/06 08:31:27;;;;;;;16.23;10.20;;;;;;;3.77;60.13;95648.97;5004696;28;20046;-85
2023/03/06 08:33:57;;;;;;;15.55;9.07;;;;;;;3.78;60.76;95653.13;5004605;28;20073;-81
2023/03/06 08:36:25;;;;;;;18.20;10.68;;;;;;;3.80;59.92;95653.78;5004056;28;20054;-82
2023/03/06 08:38:52;;;;;;;17.02;10.10;;;;;;;3.76;60.32;95655.91;4997030;28;20074;-82
2023/03/06 08:41:21;;;;;;;17.90;10.88;;;;;;;3.80;60.58;95657.16;4990515;28;20053;-81
2023/03/06 08:43:50;;;;;;;17.05;10.60;;;;;;;3.84;60.54;95657.66;4993054;28;20046;-83
2023/03/06 08:46:19;;;;;;;18.15;11.25;;;;;;;3.87;60.65;95647.00;4985202;28;20057;-84
2023/03/06 08:48:47;;;;;;;15.77;10.00;;;;;;;3.91;60.44;95653.44;4987382;28;20056;-83
2023/03/06 08:51:15;;;;;;;19.08;10.95;;;;;;;3.93;59.68;95654.09;4992598;28;20042;-83
2023/03/06 08:53:43;;;;;;;18.40;10.90;;;;;;;3.95;59.92;95653.94;4997876;28;20429;-82
2023/03/06 08:56:16;;;;;;;16.30;10.27;;;;;;;3.97;60.00;95657.94;4989569;28;20475;-83
2023/03/06 08:58:44;;;;;;;;;;;;;;;4.01;59.54;95656.66;5012494;28;20057;-85
2023/03/06 09:01:18;;;;;;;19.35;9.65;;;;;;;4.02;59.29;95649.72;5010403;28;19906;-85
2023/03/06 09:03:46;;;;;;;13.63;8.40;;;;;;;4.05;59.45;95655.38;5012327;28;20491;-84
2023/03/06 09:06:16;;;;;;;14.60;8.70;;;;;;;4.08;59.30;95655.03;5002479;28;20105;-85
2023/03/06 09:08:44;;;;;;;12.80;7.97;;;;;;;4.14;58.49;95658.75;5010091;28;20046;-87
2023/03/06 09:11:13;;;;;;;12.60;7.53;;;;;;;4.20;58.78;95652.09;4998522;28;20078;-81
2023/03/06 09:13:41;;;;;;;11.32;7.90;;;;;;;4.27;58.67;95656.44;4999001;28;20078;-83
2023/03/06 09:16:09;;;;;;;11.07;7.25;;;;;;;4.34;57.99;95666.91;5007493;28;20045;-80
2023/03/06 09:18:39;;;;;;;12.80;7.43;;;;;;;4.38;57.79;95664.81;4997915;28;20046;-80
2023/03/06 09:21:07;;;;;;;10.23;6.57;;;;;;;4.37;57.64;95674.31;4984835;28;20082;-80
2023/03/06 09:23:35;;;;;;;10.75;7.18;;;;;;;4.37;57.81;95674.31;4988652;28;20137;-84
2023/03/06 09:26:03;;;;;;;11.32;6.68;;;;;;;4.38;57.97;95670.78;4992094;28;20486;-83
2023/03/06 09:28:31;;;;;;;11.32;6.53;;;;;;;4.40;57.96;95679.16;4989700;28;20092;-79
2023/03/06 09:30:59;;;;;;;10.43;6.75;;;;;;;4.39;57.64;95682.69;5004912;28;20081;-83
2023/03/06 09:33:30;;;;;;;13.95;7.65;;;;;;;4.37;58.07;95673.53;4985201;28;20053;-83
2023/03/06 09:35:59;;;;;;;11.90;6.88;;;;;;;4.34;58.34;95677.25;5003387;28;20058;-83
2023/03/06 09:38:28;;;;;;;9.90;6.80;;;;;;;4.33;58.55;95675.66;5000014;28;20146;-81
2023/03/06 09:41:04;;;;;;;9.80;6.63;;;;;;;4.32;58.55;95681.75;5008253;28;20051;-82
2023/03/06 09:43:35;;;;;;;14.30;7.43;;;;;;;4.31;58.39;95675.00;4999038;28;20050;-81
2023/03/06 09:46:13;;;;;;;12.75;6.85;;;;;;;4.31;58.68;95675.00;5008105;28;20058;-81
2023/03/06 09:48:53;;;;;;;11.57;6.90;;;;;;;4.32;58.68;95676.59;5004367;28;20050;-82
2023/03/06 09:51:33;;;;;;;10.13;6.65;;;;;;;4.32;59.00;95679.19;5003423;28;20052;-82
2023/03/06 09:54:09;;;;;;;10.52;6.40;;;;;;;4.34;58.55;95685.78;4997008;28;20051;-81
2023/03/06 09:56:37;;;;;;;11.02;6.57;;;;;;;4.38;58.75;95670.78;5000287;28;20101;-82
2023/03/06 09:59:11;;;;;;;10.77;7.50;;;;;;;4.42;58.81;95668.69;4992468;28;20057;-82
2023/03/06 10:01:42;;;;;;;10.15;6.82;;;;;;;4.47;58.46;95663.81;4986137;28;20078;-81
2023/03/06 10:04:23;;;;;;;9.65;6.22;;;;;;;4.51;57.89;95670.25;4997565;28;20042;-83
2023/03/06 10:06:56;;;;;;;11.07;7.15;;;;;;;4.53;58.33;95663.94;4989424;28;20047;-83
2023/03/06 10:09:28;;;;;;;9.82;6.72;;;;;;;4.57;57.79;95668.78;5004628;28;20062;-83
2023/03/06 10:12:02;;;;;;;12.07;6.83;;;;;;;4.61;57.86;95662.31;5000576;28;20488;-83
2023/03/06 10:14:37;;;;;;;9.70;7.22;;;;;;;4.67;57.91;95659.06;4997650;28;20303;-83
2023/03/06 10:17:16;;;;;;;12.70;7.63;;;;;;;4.74;57.69;95654.81;5015080;28;20118;-84
2023/03/06 10:19:46;;;;;;;10.90;7.20;;;;;;;4.80;57.43;95659.31;5007461;28;20070;-82
2023/03/06 10:22:25;;;;;;;11.25;7.55;;;;;;;4.87;57.04;95660.25;5011510;28;20050;-84
2023/03/06 10:25:00;;;;;;;10.60;7.25;;;;;;;4.93;56.82;95664.75;5010023;28;20050;-84
2023/03/06 10:27:43;;;;;;;10.05;6.47;;;;;;;4.99;57.21;95652.94;5004046;28;20063;-85
2023/03/06 10:30:27;;;;;;;10.88;6.70;;;;;;;5.05;56.87;95656.59;4991911;28;20062;-83
2023/03/06 10:33:06;;;;;;;10.65;7.15;;;;;;;5.08;56.90;95651.09;4997907;28;20051;-84
2023/03/06 10:35:51;;;;;;;10.35;6.80;;;;;;;5.05;56.54;95656.59;4998872;28;20054;-82
2023/03/06 10:51:57;;;;;;;12.45;7.82;;;;;;;4.91;57.83;95656.34;5012207;28;20046;-81
2023/03/06 10:54:36;;;;;;;14.38;9.40;;;;;;;4.87;58.33;95659.44;4998756;28;20505;-82
2023/03/06 10:57:19;;;;;;;13.85;9.07;;;;;;;4.83;58.63;95661.59;4998272;28;20070;-85
2023/03/06 10:59:52;;;;;;;14.68;9.30;;;;;;;4.80;58.42;95664.47;4998602;28;20026;-82
2023/03/06 11:02:27;;;;;;;15.43;9.93;;;;;;;4.77;58.84;95662.25;4998749;28;20058;-83
2023/03/06 11:04:58;;;;;;;15.93;9.23;;;;;;;4.73;59.10;95656.59;4981940;28;20168;-83
2023/03/06 11:07:29;;;;;;;15.50;9.20;;;;;;;4.72;59.30;95667.09;4998356;28;20065;-82
2023/03/06 11:10:04;;;;;;;14.90;9.10;;;;;;;4.67;59.74;95661.63;4998760;28;20037;-82
2023/03/06 11:12:35;;;;;;;15.15;9.32;;;;;;;4.59;59.46;95659.09;4999299;28;20045;-84
2023/03/06 11:15:19;;;;;;;17.90;10.63;;;;;;;4.56;59.96;95660.22;4999425;28;20037;-84
2023/03/06 11:17:58;;;;;;;16.08;9.32;;;;;;;4.56;59.94;95662.00;4999729;28;20038;-84
2023/03/06 11:20:34;;;;;;;15.25;8.93;;;;;;;4.57;60.16;95658.44;4999581;28;20042;-85
2023/03/06 11:23:29;;;;;;;16.92;10.68;;;;;;;4.52;60.36;95653.78;4999987;28;20270;-85
2023/03/06 11:26:07;;;;;;;14.23;9.63;;;;;;;4.50;60.72;95659.13;4999693;28;20082;-83
2023/03/06 11:28:40;;;;;;;16.77;9.50;;;;;;;4.52;61.04;95667.50;4999394;28;20035;-85
2023/03/06 11:31:13;;;;;;;14.75;8.65;;;;;;;4.51;60.93;95659.94;4999876;28;20038;-85
2023/03/06 11:33:49;;;;;;;12.65;8.50;;;;;;;4.45;61.36;95671.72;4999603;28;20046;-85
2023/03/06 11:36:26;;;;;;;14.85;9.18;;;;;;;4.38;62.32;95668.19;4999759;28;20067;-84
2023/03/06 11:38:58;;;;;;;14.05;8.32;;;;;;;4.35;62.21;95660.75;4999284;28;20062;-79
2023/03/06 11:41:34;;;;;;;13.38;9.65;;;;;;;4.36;63.06;95664.97;4999695;28;20066;-87
2023/03/06 11:44:15;;;;;;;12.43;8.55;;;;;;;4.38;63.08;95660.44;4999496;28;20098;-87
2023/03/06 11:46:49;;;;;;;12.90;8.10;;;;;;;4.37;63.24;95653.66;4999539;28;20031;-85
2023/03/06 11:49:26;;;;;;;14.45;9.98;;;;;;;4.43;63.87;95654.78;4999398;28;20248;-80
2023/03/06 11:52:00;;;;;;;13.70;8.73;;;;;;;4.53;63.32;95648.47;4999517;28;20089;-85
2023/03/06 11:54:30;;;;;;;16.95;8.75;;;;;;;4.62;62.91;95645.84;4999220;28;20127;-84
2023/03/06 11:57:02;;;;;;;13.23;8.27;;;;;;;4.67;63.16;95643.56;4999262;28;20038;-83